Zachary, Louisiana
Current Conditions -  °F | °C
As of 9:53 AM on Thursday 27 Nov 2014 (Local Time) from KBTR Reporting Station
Clear Clear  
Wind Chill: 12°   Ceiling: Unl
Heat Index: 12°   Visibility: 10mi
Dew Point: -1°   Wind: 9mph
Humidity: 43%   Direction: 340°NNW
Pressure: 30.47"   Gusts: NA
Location:  30.65°N, 91.16°W
Report Text: KBTR 271553Z 34008KT 10SM CLR 12/M01 A3047 RMK AO2 SLP317 T01171006
Loading
Personal Weather Stations






























Interactive Weather Map New forecast layout! Learn more

10-Day Weather Forecast

Advertisements
Track Severe Weather on mobile